Terminal Aerodrome Forecast
Issued by NWS

Home | Current Version | Previous Version | Text Only | Print | Product List | Glossary On
Versions: 1 2 3 4 5 6 7 8 9 10 11 12 13 14 15 16 17
000
FTUS43 KJKL 040520
TAFSME
TAF
KSME 040520Z 0406/0506 00000KT P6SM VCTS BKN050CB BKN100
     FM040800 VRB02KT 5SM BR SCT050
      TEMPO 0410/0412 1/4SM FG BKN002
     FM041300 VRB06KT P6SM SCT020
     FM041500 29007KT P6SM BKN040=

USA.gov is the U.S. government's official web portal to all federal, state and local government web resources and services.